sensor_id;sensor_type;location;lat;lon;timestamp;P1;durP1;ratioP1;P2;durP2;ratioP2
26038;SDS011;13815;52.374;4.882;2022-08-05T00:00:00;28.50;;;22.33;;
26038;SDS011;13815;52.374;4.882;2022-08-05T00:02:26;27.95;;;22.25;;
26038;SDS011;13815;52.374;4.882;2022-08-05T00:04:51;27.48;;;21.92;;
26038;SDS011;13815;52.374;4.882;2022-08-05T00:07:17;27.63;;;22.13;;
26038;SDS011;13815;52.374;4.882;2022-08-05T00:09:42;26.80;;;21.77;;
26038;SDS011;13815;52.374;4.882;2022-08-05T00:12:08;25.73;;;21.33;;
26038;SDS011;13815;52.374;4.882;2022-08-05T00:14:33;26.48;;;21.58;;
26038;SDS011;13815;52.374;4.882;2022-08-05T00:16:58;26.67;;;21.63;;
26038;SDS011;13815;52.374;4.882;2022-08-05T00:19:24;26.42;;;21.38;;
26038;SDS011;13815;52.374;4.882;2022-08-05T00:21:50;26.55;;;21.65;;
26038;SDS011;13815;52.374;4.882;2022-08-05T00:24:15;26.25;;;21.25;;
26038;SDS011;13815;52.374;4.882;2022-08-05T00:26:40;25.98;;;21.23;;
26038;SDS011;13815;52.374;4.882;2022-08-05T00:29:06;25.55;;;21.30;;
26038;SDS011;13815;52.374;4.882;2022-08-05T00:31:31;25.25;;;20.88;;
26038;SDS011;13815;52.374;4.882;2022-08-05T00:33:56;25.63;;;21.08;;
26038;SDS011;13815;52.374;4.882;2022-08-05T00:36:22;25.88;;;21.30;;
26038;SDS011;13815;52.374;4.882;2022-08-05T00:38:49;26.10;;;21.23;;
26038;SDS011;13815;52.374;4.882;2022-08-05T00:41:25;26.20;;;21.40;;
26038;SDS011;13815;52.374;4.882;2022-08-05T00:43:51;25.48;;;20.95;;
26038;SDS011;13815;52.374;4.882;2022-08-05T00:46:16;25.20;;;21.08;;
26038;SDS011;13815;52.374;4.882;2022-08-05T00:48:42;24.33;;;20.92;;
26038;SDS011;13815;52.374;4.882;2022-08-05T00:51:07;24.08;;;20.98;;
26038;SDS011;13815;52.374;4.882;2022-08-05T00:53:32;24.65;;;21.23;;
26038;SDS011;13815;52.374;4.882;2022-08-05T00:55:58;24.13;;;20.77;;
26038;SDS011;13815;52.374;4.882;2022-08-05T00:58:23;24.08;;;20.65;;
26038;SDS011;13815;52.374;4.882;2022-08-05T01:00:48;22.85;;;20.35;;
26038;SDS011;13815;52.374;4.882;2022-08-05T01:03:14;23.02;;;20.52;;
26038;SDS011;13815;52.374;4.882;2022-08-05T01:05:41;23.05;;;20.55;;
26038;SDS011;13815;52.374;4.882;2022-08-05T01:08:07;23.13;;;20.63;;
26038;SDS011;13815;52.374;4.882;2022-08-05T01:10:34;22.75;;;20.25;;
26038;SDS011;13815;52.374;4.882;2022-08-05T01:13:07;22.55;;;20.15;;
26038;SDS011;13815;52.374;4.882;2022-08-05T01:15:38;22.55;;;20.15;;
26038;SDS011;13815;52.374;4.882;2022-08-05T01:18:08;22.95;;;20.45;;
26038;SDS011;13815;52.374;4.882;2022-08-05T01:20:51;23.40;;;20.60;;
26038;SDS011;13815;52.374;4.882;2022-08-05T01:23:38;23.25;;;20.48;;
26038;SDS011;13815;52.374;4.882;2022-08-05T01:29:00;23.83;;;20.60;;
26038;SDS011;13815;52.374;4.882;2022-08-05T01:31:36;23.77;;;20.65;;
26038;SDS011;13815;52.374;4.882;2022-08-05T01:34:09;23.80;;;20.80;;
26038;SDS011;13815;52.374;4.882;2022-08-05T01:36:38;23.27;;;20.52;;
26038;SDS011;13815;52.374;4.882;2022-08-05T01:39:06;24.00;;;20.90;;
26038;SDS011;13815;52.374;4.882;2022-08-05T01:41:32;23.65;;;20.95;;
26038;SDS011;13815;52.374;4.882;2022-08-05T01:44:00;23.55;;;20.75;;
26038;SDS011;13815;52.374;4.882;2022-08-05T01:46:26;24.00;;;21.00;;
26038;SDS011;13815;52.374;4.882;2022-08-05T01:48:53;23.17;;;20.50;;
26038;SDS011;13815;52.374;4.882;2022-08-05T01:51:19;22.92;;;20.23;;
26038;SDS011;13815;52.374;4.882;2022-08-05T01:53:46;22.92;;;20.17;;
26038;SDS011;13815;52.374;4.882;2022-08-05T01:56:14;23.10;;;20.30;;
26038;SDS011;13815;52.374;4.882;2022-08-05T01:58:40;23.42;;;20.48;;
26038;SDS011;13815;52.374;4.882;2022-08-05T02:01:06;22.70;;;20.20;;
26038;SDS011;13815;52.374;4.882;2022-08-05T02:03:33;22.15;;;19.85;;
26038;SDS011;13815;52.374;4.882;2022-08-05T02:06:02;22.25;;;19.95;;
26038;SDS011;13815;52.374;4.882;2022-08-05T02:08:32;22.10;;;19.80;;
26038;SDS011;13815;52.374;4.882;2022-08-05T02:11:02;22.15;;;19.85;;
26038;SDS011;13815;52.374;4.882;2022-08-05T02:16:45;22.15;;;19.85;;
26038;SDS011;13815;52.374;4.882;2022-08-05T02:19:08;21.55;;;19.35;;
26038;SDS011;13815;52.374;4.882;2022-08-05T02:21:47;21.85;;;19.55;;
26038;SDS011;13815;52.374;4.882;2022-08-05T02:24:17;21.48;;;19.27;;
26038;SDS011;13815;52.374;4.882;2022-08-05T02:26:45;21.63;;;19.42;;
26038;SDS011;13815;52.374;4.882;2022-08-05T02:29:15;21.25;;;19.15;;
26038;SDS011;13815;52.374;4.882;2022-08-05T02:31:41;21.55;;;19.38;;
26038;SDS011;13815;52.374;4.882;2022-08-05T02:34:09;22.02;;;19.73;;
26038;SDS011;13815;52.374;4.882;2022-08-05T02:36:37;21.80;;;19.60;;
26038;SDS011;13815;52.374;4.882;2022-08-05T02:39:05;21.63;;;19.42;;
26038;SDS011;13815;52.374;4.882;2022-08-05T02:41:33;22.00;;;19.70;;
26038;SDS011;13815;52.374;4.882;2022-08-05T02:43:58;21.33;;;19.23;;
26038;SDS011;13815;52.374;4.882;2022-08-05T02:46:24;21.08;;;18.98;;
26038;SDS011;13815;52.374;4.882;2022-08-05T02:48:51;21.00;;;18.90;;
26038;SDS011;13815;52.374;4.882;2022-08-05T02:51:17;21.25;;;19.15;;
26038;SDS011;13815;52.374;4.882;2022-08-05T02:53:42;21.20;;;19.10;;
26038;SDS011;13815;52.374;4.882;2022-08-05T02:56:09;21.63;;;19.42;;
26038;SDS011;13815;52.374;4.882;2022-08-05T02:58:35;22.30;;;19.90;;
26038;SDS011;13815;52.374;4.882;2022-08-05T03:01:05;22.30;;;19.88;;
26038;SDS011;13815;52.374;4.882;2022-08-05T03:03:32;22.15;;;19.83;;
26038;SDS011;13815;52.374;4.882;2022-08-05T03:05:59;22.50;;;20.10;;
26038;SDS011;13815;52.374;4.882;2022-08-05T03:08:24;22.15;;;19.85;;
26038;SDS011;13815;52.374;4.882;2022-08-05T03:10:50;22.40;;;20.05;;
26038;SDS011;13815;52.374;4.882;2022-08-05T03:13:15;22.50;;;20.10;;
26038;SDS011;13815;52.374;4.882;2022-08-05T03:15:42;22.23;;;19.88;;
26038;SDS011;13815;52.374;4.882;2022-08-05T03:18:08;22.15;;;19.85;;
26038;SDS011;13815;52.374;4.882;2022-08-05T03:20:33;22.15;;;19.85;;
26038;SDS011;13815;52.374;4.882;2022-08-05T03:22:58;22.00;;;19.70;;
26038;SDS011;13815;52.374;4.882;2022-08-05T03:25:24;21.85;;;19.55;;
26038;SDS011;13815;52.374;4.882;2022-08-05T03:27:50;21.38;;;19.17;;
26038;SDS011;13815;52.374;4.882;2022-08-05T03:30:16;21.42;;;19.27;;
26038;SDS011;13815;52.374;4.882;2022-08-05T03:32:41;21.20;;;19.10;;
26038;SDS011;13815;52.374;4.882;2022-08-05T03:35:07;20.90;;;18.83;;
26038;SDS011;13815;52.374;4.882;2022-08-05T03:37:32;20.65;;;18.65;;
26038;SDS011;13815;52.374;4.882;2022-08-05T03:39:58;21.08;;;18.98;;
26038;SDS011;13815;52.374;4.882;2022-08-05T03:42:24;20.77;;;18.77;;
26038;SDS011;13815;52.374;4.882;2022-08-05T03:44:49;21.35;;;19.17;;
26038;SDS011;13815;52.374;4.882;2022-08-05T03:47:15;21.50;;;19.30;;
26038;SDS011;13815;52.374;4.882;2022-08-05T03:49:41;21.67;;;19.48;;
26038;SDS011;13815;52.374;4.882;2022-08-05T03:52:08;21.25;;;19.15;;
26038;SDS011;13815;52.374;4.882;2022-08-05T03:54:52;21.25;;;19.15;;
26038;SDS011;13815;52.374;4.882;2022-08-05T03:57:22;21.17;;;19.08;;
26038;SDS011;13815;52.374;4.882;2022-08-05T03:59:54;21.27;;;19.17;;
26038;SDS011;13815;52.374;4.882;2022-08-05T04:02:24;21.47;;;19.27;;
26038;SDS011;13815;52.374;4.882;2022-08-05T04:04:51;21.58;;;19.38;;
26038;SDS011;13815;52.374;4.882;2022-08-05T04:07:16;21.05;;;18.98;;
26038;SDS011;13815;52.374;4.882;2022-08-05T04:09:42;20.73;;;18.73;;
26038;SDS011;13815;52.374;4.882;2022-08-05T04:12:08;20.77;;;18.77;;
26038;SDS011;13815;52.374;4.882;2022-08-05T04:14:33;20.38;;;18.38;;
26038;SDS011;13815;52.374;4.882;2022-08-05T04:17:00;20.58;;;18.58;;
26038;SDS011;13815;52.374;4.882;2022-08-05T04:19:29;20.70;;;18.60;;
26038;SDS011;13815;52.374;4.882;2022-08-05T04:21:54;20.38;;;18.38;;
26038;SDS011;13815;52.374;4.882;2022-08-05T04:24:20;20.60;;;18.52;;
26038;SDS011;13815;52.374;4.882;2022-08-05T04:26:45;20.40;;;18.40;;
26038;SDS011;13815;52.374;4.882;2022-08-05T04:29:11;20.73;;;18.63;;
26038;SDS011;13815;52.374;4.882;2022-08-05T04:31:36;20.98;;;18.88;;
26038;SDS011;13815;52.374;4.882;2022-08-05T04:34:02;20.45;;;18.45;;
26038;SDS011;13815;52.374;4.882;2022-08-05T04:36:27;21.00;;;18.83;;
26038;SDS011;13815;52.374;4.882;2022-08-05T04:38:53;20.85;;;18.75;;
26038;SDS011;13815;52.374;4.882;2022-08-05T04:41:19;20.42;;;18.42;;
26038;SDS011;13815;52.374;4.882;2022-08-05T04:43:44;20.58;;;18.58;;
26038;SDS011;13815;52.374;4.882;2022-08-05T04:46:10;20.75;;;18.65;;
26038;SDS011;13815;52.374;4.882;2022-08-05T04:48:35;20.75;;;18.75;;
26038;SDS011;13815;52.374;4.882;2022-08-05T04:51:01;20.35;;;18.35;;
26038;SDS011;13815;52.374;4.882;2022-08-05T04:53:26;20.20;;;18.30;;
26038;SDS011;13815;52.374;4.882;2022-08-05T04:55:52;20.17;;;18.27;;
26038;SDS011;13815;52.374;4.882;2022-08-05T04:58:18;19.70;;;17.90;;
26038;SDS011;13815;52.374;4.882;2022-08-05T05:00:43;20.55;;;18.55;;
26038;SDS011;13815;52.374;4.882;2022-08-05T05:03:09;20.20;;;18.30;;
26038;SDS011;13815;52.374;4.882;2022-08-05T05:05:34;20.48;;;18.48;;
26038;SDS011;13815;52.374;4.882;2022-08-05T05:08:01;20.63;;;18.63;;
26038;SDS011;13815;52.374;4.882;2022-08-05T05:10:32;20.20;;;18.30;;
26038;SDS011;13815;52.374;4.882;2022-08-05T05:13:02;20.08;;;18.17;;
26038;SDS011;13815;52.374;4.882;2022-08-05T05:15:27;20.63;;;18.63;;
26038;SDS011;13815;52.374;4.882;2022-08-05T05:17:53;20.77;;;18.75;;
26038;SDS011;13815;52.374;4.882;2022-08-05T05:20:18;21.00;;;18.90;;
26038;SDS011;13815;52.374;4.882;2022-08-05T05:22:43;21.52;;;19.33;;
26038;SDS011;13815;52.374;4.882;2022-08-05T05:25:09;21.38;;;19.17;;
26038;SDS011;13815;52.374;4.882;2022-08-05T05:27:35;20.98;;;18.88;;
26038;SDS011;13815;52.374;4.882;2022-08-05T05:30:01;21.42;;;19.23;;
26038;SDS011;13815;52.374;4.882;2022-08-05T05:32:26;21.35;;;19.20;;
26038;SDS011;13815;52.374;4.882;2022-08-05T05:34:52;21.35;;;19.25;;
26038;SDS011;13815;52.374;4.882;2022-08-05T05:37:17;21.42;;;19.33;;
26038;SDS011;13815;52.374;4.882;2022-08-05T05:39:43;21.42;;;19.33;;
26038;SDS011;13815;52.374;4.882;2022-08-05T05:42:08;21.38;;;19.27;;
26038;SDS011;13815;52.374;4.882;2022-08-05T05:44:34;21.75;;;19.55;;
26038;SDS011;13815;52.374;4.882;2022-08-05T05:46:59;21.17;;;19.17;;
26038;SDS011;13815;52.374;4.882;2022-08-05T05:49:25;21.58;;;19.48;;
26038;SDS011;13815;52.374;4.882;2022-08-05T05:51:50;21.45;;;19.35;;
26038;SDS011;13815;52.374;4.882;2022-08-05T05:54:16;21.63;;;19.52;;
26038;SDS011;13815;52.374;4.882;2022-08-05T05:56:41;21.30;;;19.25;;
26038;SDS011;13815;52.374;4.882;2022-08-05T05:59:06;21.52;;;19.42;;
26038;SDS011;13815;52.374;4.882;2022-08-05T06:01:36;21.55;;;19.45;;
26038;SDS011;13815;52.374;4.882;2022-08-05T06:04:02;21.00;;;19.00;;
26038;SDS011;13815;52.374;4.882;2022-08-05T06:06:28;21.60;;;19.50;;
26038;SDS011;13815;52.374;4.882;2022-08-05T06:08:53;21.80;;;19.70;;
26038;SDS011;13815;52.374;4.882;2022-08-05T06:11:19;21.10;;;19.10;;
26038;SDS011;13815;52.374;4.882;2022-08-05T06:13:44;21.48;;;19.38;;
26038;SDS011;13815;52.374;4.882;2022-08-05T06:16:09;21.38;;;19.30;;
26038;SDS011;13815;52.374;4.882;2022-08-05T06:18:35;21.90;;;19.70;;
26038;SDS011;13815;52.374;4.882;2022-08-05T06:21:01;21.83;;;19.73;;
26038;SDS011;13815;52.374;4.882;2022-08-05T06:23:27;21.58;;;19.48;;
26038;SDS011;13815;52.374;4.882;2022-08-05T06:25:52;21.75;;;19.65;;
26038;SDS011;13815;52.374;4.882;2022-08-05T06:28:18;22.80;;;20.40;;
26038;SDS011;13815;52.374;4.882;2022-08-05T06:30:43;22.10;;;19.85;;
26038;SDS011;13815;52.374;4.882;2022-08-05T06:33:11;22.85;;;20.55;;
26038;SDS011;13815;52.374;4.882;2022-08-05T06:35:36;22.45;;;20.25;;
26038;SDS011;13815;52.374;4.882;2022-08-05T06:38:03;23.05;;;20.65;;
26038;SDS011;13815;52.374;4.882;2022-08-05T06:40:28;23.67;;;21.17;;
26038;SDS011;13815;52.374;4.882;2022-08-05T06:42:54;23.23;;;20.83;;
26038;SDS011;13815;52.374;4.882;2022-08-05T06:45:20;23.50;;;21.10;;
26038;SDS011;13815;52.374;4.882;2022-08-05T06:47:46;23.17;;;20.80;;
26038;SDS011;13815;52.374;4.882;2022-08-05T06:50:11;23.65;;;21.15;;
26038;SDS011;13815;52.374;4.882;2022-08-05T06:52:37;23.55;;;21.05;;
26038;SDS011;13815;52.374;4.882;2022-08-05T06:55:03;23.02;;;20.52;;
26038;SDS011;13815;52.374;4.882;2022-08-05T06:57:28;24.27;;;21.10;;
26038;SDS011;13815;52.374;4.882;2022-08-05T06:59:54;26.30;;;22.20;;
26038;SDS011;13815;52.374;4.882;2022-08-05T07:02:19;25.25;;;22.15;;
26038;SDS011;13815;52.374;4.882;2022-08-05T07:04:45;25.52;;;21.90;;
26038;SDS011;13815;52.374;4.882;2022-08-05T07:07:10;25.17;;;21.85;;
26038;SDS011;13815;52.374;4.882;2022-08-05T07:09:35;26.35;;;22.38;;
26038;SDS011;13815;52.374;4.882;2022-08-05T07:12:01;26.40;;;22.25;;
26038;SDS011;13815;52.374;4.882;2022-08-05T07:14:26;26.25;;;22.17;;
26038;SDS011;13815;52.374;4.882;2022-08-05T07:17:10;25.92;;;22.40;;
26038;SDS011;13815;52.374;4.882;2022-08-05T07:19:36;25.85;;;21.98;;
26038;SDS011;13815;52.374;4.882;2022-08-05T07:22:01;26.27;;;22.23;;
26038;SDS011;13815;52.374;4.882;2022-08-05T07:24:27;25.30;;;21.83;;
26038;SDS011;13815;52.374;4.882;2022-08-05T07:26:52;26.15;;;22.33;;
26038;SDS011;13815;52.374;4.882;2022-08-05T07:29:17;28.33;;;22.65;;
26038;SDS011;13815;52.374;4.882;2022-08-05T07:31:43;28.25;;;22.48;;
26038;SDS011;13815;52.374;4.882;2022-08-05T07:34:08;26.83;;;22.08;;
26038;SDS011;13815;52.374;4.882;2022-08-05T07:36:34;25.67;;;21.58;;
26038;SDS011;13815;52.374;4.882;2022-08-05T07:39:00;27.67;;;22.52;;
26038;SDS011;13815;52.374;4.882;2022-08-05T07:41:27;27.65;;;22.23;;
26038;SDS011;13815;52.374;4.882;2022-08-05T07:43:53;27.42;;;21.90;;
26038;SDS011;13815;52.374;4.882;2022-08-05T07:46:19;25.83;;;21.83;;
26038;SDS011;13815;52.374;4.882;2022-08-05T07:48:44;26.67;;;22.63;;
26038;SDS011;13815;52.374;4.882;2022-08-05T07:51:09;27.83;;;22.45;;
26038;SDS011;13815;52.374;4.882;2022-08-05T07:53:35;25.98;;;22.00;;
26038;SDS011;13815;52.374;4.882;2022-08-05T07:56:01;27.00;;;22.45;;
26038;SDS011;13815;52.374;4.882;2022-08-05T07:58:29;27.40;;;23.50;;
26038;SDS011;13815;52.374;4.882;2022-08-05T08:00:55;27.15;;;22.58;;
26038;SDS011;13815;52.374;4.882;2022-08-05T08:03:20;27.75;;;22.30;;
26038;SDS011;13815;52.374;4.882;2022-08-05T08:05:46;25.42;;;21.38;;
26038;SDS011;13815;52.374;4.882;2022-08-05T08:08:11;25.08;;;21.25;;
26038;SDS011;13815;52.374;4.882;2022-08-05T08:10:37;28.02;;;22.25;;
26038;SDS011;13815;52.374;4.882;2022-08-05T08:13:03;26.25;;;21.45;;
26038;SDS011;13815;52.374;4.882;2022-08-05T08:15:30;26.35;;;21.90;;
26038;SDS011;13815;52.374;4.882;2022-08-05T08:17:55;28.38;;;22.23;;
26038;SDS011;13815;52.374;4.882;2022-08-05T08:20:21;28.08;;;22.50;;
26038;SDS011;13815;52.374;4.882;2022-08-05T08:22:54;27.27;;;22.38;;
26038;SDS011;13815;52.374;4.882;2022-08-05T08:25:23;28.42;;;22.95;;
26038;SDS011;13815;52.374;4.882;2022-08-05T08:27:49;31.98;;;24.80;;
26038;SDS011;13815;52.374;4.882;2022-08-05T08:30:14;31.45;;;23.80;;
26038;SDS011;13815;52.374;4.882;2022-08-05T08:32:40;28.30;;;23.55;;
26038;SDS011;13815;52.374;4.882;2022-08-05T08:35:05;28.33;;;23.60;;
26038;SDS011;13815;52.374;4.882;2022-08-05T08:37:31;31.00;;;24.15;;
26038;SDS011;13815;52.374;4.882;2022-08-05T08:39:57;30.85;;;23.92;;
26038;SDS011;13815;52.374;4.882;2022-08-05T08:42:22;29.15;;;23.63;;
26038;SDS011;13815;52.374;4.882;2022-08-05T08:44:51;32.70;;;24.40;;
26038;SDS011;13815;52.374;4.882;2022-08-05T08:47:20;30.42;;;24.10;;
26038;SDS011;13815;52.374;4.882;2022-08-05T08:49:47;28.35;;;23.63;;
26038;SDS011;13815;52.374;4.882;2022-08-05T08:52:16;28.67;;;23.38;;
26038;SDS011;13815;52.374;4.882;2022-08-05T08:54:47;29.45;;;23.58;;
26038;SDS011;13815;52.374;4.882;2022-08-05T08:57:15;31.20;;;23.70;;
26038;SDS011;13815;52.374;4.882;2022-08-05T08:59:41;30.70;;;23.77;;
26038;SDS011;13815;52.374;4.882;2022-08-05T09:02:09;29.35;;;23.50;;
26038;SDS011;13815;52.374;4.882;2022-08-05T09:04:35;29.20;;;23.63;;
26038;SDS011;13815;52.374;4.882;2022-08-05T09:07:04;29.83;;;23.25;;
26038;SDS011;13815;52.374;4.882;2022-08-05T09:09:31;31.67;;;23.55;;
26038;SDS011;13815;52.374;4.882;2022-08-05T09:11:57;30.17;;;22.85;;
26038;SDS011;13815;52.374;4.882;2022-08-05T09:14:22;29.45;;;23.15;;
26038;SDS011;13815;52.374;4.882;2022-08-05T09:16:48;31.90;;;24.60;;
26038;SDS011;13815;52.374;4.882;2022-08-05T09:19:13;30.52;;;24.17;;
26038;SDS011;13815;52.374;4.882;2022-08-05T09:21:39;30.40;;;23.88;;
26038;SDS011;13815;52.374;4.882;2022-08-05T09:24:05;34.17;;;24.33;;
26038;SDS011;13815;52.374;4.882;2022-08-05T09:26:37;32.40;;;24.38;;
26038;SDS011;13815;52.374;4.882;2022-08-05T09:29:04;30.52;;;24.08;;
26038;SDS011;13815;52.374;4.882;2022-08-05T09:31:31;31.80;;;24.40;;
26038;SDS011;13815;52.374;4.882;2022-08-05T09:33:57;29.73;;;23.45;;
26038;SDS011;13815;52.374;4.882;2022-08-05T09:36:40;32.97;;;24.48;;
26038;SDS011;13815;52.374;4.882;2022-08-05T09:39:08;29.42;;;23.48;;
26038;SDS011;13815;52.374;4.882;2022-08-05T09:41:33;31.73;;;24.10;;
26038;SDS011;13815;52.374;4.882;2022-08-05T09:43:59;30.30;;;23.10;;
26038;SDS011;13815;52.374;4.882;2022-08-05T09:46:34;30.15;;;23.63;;
26038;SDS011;13815;52.374;4.882;2022-08-05T09:49:00;30.73;;;23.70;;
26038;SDS011;13815;52.374;4.882;2022-08-05T09:51:37;30.45;;;23.77;;
26038;SDS011;13815;52.374;4.882;2022-08-05T09:54:06;35.42;;;24.60;;
26038;SDS011;13815;52.374;4.882;2022-08-05T09:56:35;32.83;;;24.80;;
26038;SDS011;13815;52.374;4.882;2022-08-05T09:59:07;31.88;;;24.65;;
26038;SDS011;13815;52.374;4.882;2022-08-05T10:01:35;32.10;;;24.60;;
26038;SDS011;13815;52.374;4.882;2022-08-05T10:04:12;29.95;;;24.08;;
26038;SDS011;13815;52.374;4.882;2022-08-05T10:06:39;31.25;;;24.02;;
26038;SDS011;13815;52.374;4.882;2022-08-05T10:09:12;30.17;;;23.85;;
26038;SDS011;13815;52.374;4.882;2022-08-05T10:11:41;32.05;;;24.85;;
26038;SDS011;13815;52.374;4.882;2022-08-05T10:14:27;31.35;;;24.58;;
26038;SDS011;13815;52.374;4.882;2022-08-05T10:16:57;29.85;;;23.63;;
26038;SDS011;13815;52.374;4.882;2022-08-05T10:19:37;28.60;;;23.13;;
26038;SDS011;13815;52.374;4.882;2022-08-05T10:22:02;29.92;;;23.40;;
26038;SDS011;13815;52.374;4.882;2022-08-05T10:24:28;28.73;;;23.00;;
26038;SDS011;13815;52.374;4.882;2022-08-05T10:26:56;29.10;;;23.17;;
26038;SDS011;13815;52.374;4.882;2022-08-05T10:29:23;30.60;;;23.70;;
26038;SDS011;13815;52.374;4.882;2022-08-05T10:31:50;30.30;;;23.50;;
26038;SDS011;13815;52.374;4.882;2022-08-05T10:34:16;30.08;;;23.20;;
26038;SDS011;13815;52.374;4.882;2022-08-05T10:36:41;28.92;;;23.23;;
26038;SDS011;13815;52.374;4.882;2022-08-05T10:41:42;30.00;;;23.27;;
26038;SDS011;13815;52.374;4.882;2022-08-05T10:44:12;29.23;;;23.50;;
26038;SDS011;13815;52.374;4.882;2022-08-05T10:46:42;28.27;;;23.20;;
26038;SDS011;13815;52.374;4.882;2022-08-05T10:49:14;28.75;;;23.45;;
26038;SDS011;13815;52.374;4.882;2022-08-05T10:51:50;26.17;;;22.52;;
26038;SDS011;13815;52.374;4.882;2022-08-05T10:54:21;27.83;;;22.80;;
26038;SDS011;13815;52.374;4.882;2022-08-05T10:56:48;26.25;;;23.00;;
26038;SDS011;13815;52.374;4.882;2022-08-05T10:59:24;28.05;;;23.17;;
26038;SDS011;13815;52.374;4.882;2022-08-05T11:04:54;27.88;;;23.35;;
26038;SDS011;13815;52.374;4.882;2022-08-05T11:07:20;27.85;;;23.50;;
26038;SDS011;13815;52.374;4.882;2022-08-05T11:09:49;27.85;;;23.42;;
26038;SDS011;13815;52.374;4.882;2022-08-05T11:15:26;27.38;;;23.00;;
26038;SDS011;13815;52.374;4.882;2022-08-05T11:18:21;27.73;;;23.35;;
26038;SDS011;13815;52.374;4.882;2022-08-05T11:20:49;28.90;;;23.73;;
26038;SDS011;13815;52.374;4.882;2022-08-05T11:26:09;30.30;;;24.10;;
26038;SDS011;13815;52.374;4.882;2022-08-05T11:28:39;28.20;;;23.13;;
26038;SDS011;13815;52.374;4.882;2022-08-05T11:36:03;28.20;;;23.02;;
26038;SDS011;13815;52.374;4.882;2022-08-05T11:41:13;27.52;;;23.55;;
26038;SDS011;13815;52.374;4.882;2022-08-05T11:43:59;29.40;;;23.13;;
26038;SDS011;13815;52.374;4.882;2022-08-05T11:46:46;26.35;;;22.75;;
26038;SDS011;13815;52.374;4.882;2022-08-05T11:49:13;27.80;;;23.00;;
26038;SDS011;13815;52.374;4.882;2022-08-05T11:51:40;26.60;;;22.80;;
26038;SDS011;13815;52.374;4.882;2022-08-05T11:54:07;27.73;;;22.90;;
26038;SDS011;13815;52.374;4.882;2022-08-05T11:59:29;29.50;;;23.85;;
26038;SDS011;13815;52.374;4.882;2022-08-05T12:02:01;27.55;;;23.90;;
26038;SDS011;13815;52.374;4.882;2022-08-05T12:04:45;27.27;;;23.03;;
26038;SDS011;13815;52.374;4.882;2022-08-05T12:07:12;26.25;;;22.67;;
26038;SDS011;13815;52.374;4.882;2022-08-05T12:09:40;28.40;;;23.48;;
26038;SDS011;13815;52.374;4.882;2022-08-05T12:12:08;26.13;;;23.15;;
26038;SDS011;13815;52.374;4.882;2022-08-05T12:14:34;26.90;;;23.35;;
26038;SDS011;13815;52.374;4.882;2022-08-05T12:19:39;25.42;;;22.65;;
26038;SDS011;13815;52.374;4.882;2022-08-05T12:22:25;27.60;;;23.13;;
26038;SDS011;13815;52.374;4.882;2022-08-05T12:24:52;27.48;;;23.33;;
26038;SDS011;13815;52.374;4.882;2022-08-05T12:27:20;27.40;;;23.55;;
26038;SDS011;13815;52.374;4.882;2022-08-05T12:30:03;26.52;;;22.95;;
26038;SDS011;13815;52.374;4.882;2022-08-05T12:32:30;26.55;;;22.88;;
26038;SDS011;13815;52.374;4.882;2022-08-05T12:34:57;26.83;;;22.95;;
26038;SDS011;13815;52.374;4.882;2022-08-05T12:37:23;30.02;;;23.70;;
26038;SDS011;13815;52.374;4.882;2022-08-05T12:39:49;28.77;;;23.25;;
26038;SDS011;13815;52.374;4.882;2022-08-05T12:42:15;27.70;;;23.15;;
26038;SDS011;13815;52.374;4.882;2022-08-05T12:44:42;29.77;;;23.30;;
26038;SDS011;13815;52.374;4.882;2022-08-05T12:47:08;29.30;;;23.63;;
26038;SDS011;13815;52.374;4.882;2022-08-05T12:49:44;27.30;;;23.05;;
26038;SDS011;13815;52.374;4.882;2022-08-05T12:52:14;28.77;;;23.70;;
26038;SDS011;13815;52.374;4.882;2022-08-05T12:54:44;28.25;;;23.10;;
26038;SDS011;13815;52.374;4.882;2022-08-05T12:57:11;28.85;;;23.05;;
26038;SDS011;13815;52.374;4.882;2022-08-05T12:59:50;29.10;;;23.15;;
26038;SDS011;13815;52.374;4.882;2022-08-05T13:02:26;31.90;;;23.23;;
26038;SDS011;13815;52.374;4.882;2022-08-05T13:04:52;31.33;;;23.38;;
26038;SDS011;13815;52.374;4.882;2022-08-05T13:07:19;34.63;;;24.33;;
26038;SDS011;13815;52.374;4.882;2022-08-05T13:09:50;31.60;;;23.23;;
26038;SDS011;13815;52.374;4.882;2022-08-05T13:12:17;30.25;;;22.95;;
26038;SDS011;13815;52.374;4.882;2022-08-05T13:14:45;32.15;;;23.50;;
26038;SDS011;13815;52.374;4.882;2022-08-05T13:19:42;29.85;;;22.48;;
26038;SDS011;13815;52.374;4.882;2022-08-05T13:22:45;29.98;;;22.95;;
26038;SDS011;13815;52.374;4.882;2022-08-05T13:25:12;31.13;;;23.27;;
26038;SDS011;13815;52.374;4.882;2022-08-05T13:27:40;30.17;;;22.67;;
26038;SDS011;13815;52.374;4.882;2022-08-05T13:30:11;32.00;;;23.50;;
26038;SDS011;13815;52.374;4.882;2022-08-05T13:32:38;30.25;;;23.40;;
26038;SDS011;13815;52.374;4.882;2022-08-05T13:35:04;28.70;;;22.60;;
26038;SDS011;13815;52.374;4.882;2022-08-05T13:37:30;26.80;;;22.23;;
26038;SDS011;13815;52.374;4.882;2022-08-05T13:39:56;27.80;;;22.40;;
26038;SDS011;13815;52.374;4.882;2022-08-05T13:42:22;28.52;;;22.70;;
26038;SDS011;13815;52.374;4.882;2022-08-05T13:44:54;29.05;;;22.95;;
26038;SDS011;13815;52.374;4.882;2022-08-05T13:47:20;29.38;;;23.17;;
26038;SDS011;13815;52.374;4.882;2022-08-05T13:49:46;32.40;;;23.73;;
26038;SDS011;13815;52.374;4.882;2022-08-05T13:52:12;30.83;;;23.85;;
26038;SDS011;13815;52.374;4.882;2022-08-05T13:54:38;30.90;;;23.48;;
26038;SDS011;13815;52.374;4.882;2022-08-05T13:57:05;29.27;;;22.70;;
26038;SDS011;13815;52.374;4.882;2022-08-05T13:59:30;30.02;;;23.02;;
26038;SDS011;13815;52.374;4.882;2022-08-05T14:01:58;31.15;;;23.75;;
26038;SDS011;13815;52.374;4.882;2022-08-05T14:04:34;29.85;;;22.65;;
26038;SDS011;13815;52.374;4.882;2022-08-05T14:07:23;30.25;;;23.35;;
26038;SDS011;13815;52.374;4.882;2022-08-05T14:09:49;31.23;;;23.98;;
26038;SDS011;13815;52.374;4.882;2022-08-05T14:12:15;30.23;;;22.98;;
26038;SDS011;13815;52.374;4.882;2022-08-05T14:14:40;29.27;;;23.50;;
26038;SDS011;13815;52.374;4.882;2022-08-05T14:17:06;31.20;;;23.90;;
26038;SDS011;13815;52.374;4.882;2022-08-05T14:19:31;30.30;;;22.80;;
26038;SDS011;13815;52.374;4.882;2022-08-05T14:21:57;28.98;;;22.70;;
26038;SDS011;13815;52.374;4.882;2022-08-05T14:24:22;31.67;;;23.10;;
26038;SDS011;13815;52.374;4.882;2022-08-05T14:26:48;31.58;;;23.20;;
26038;SDS011;13815;52.374;4.882;2022-08-05T14:29:13;30.63;;;22.70;;
26038;SDS011;13815;52.374;4.882;2022-08-05T14:31:39;31.00;;;22.88;;
26038;SDS011;13815;52.374;4.882;2022-08-05T14:34:04;32.00;;;23.50;;
26038;SDS011;13815;52.374;4.882;2022-08-05T14:36:29;31.45;;;23.65;;
26038;SDS011;13815;52.374;4.882;2022-08-05T14:38:55;31.35;;;23.67;;
26038;SDS011;13815;52.374;4.882;2022-08-05T14:41:21;32.45;;;23.85;;
26038;SDS011;13815;52.374;4.882;2022-08-05T14:43:46;30.73;;;23.08;;
26038;SDS011;13815;52.374;4.882;2022-08-05T14:46:12;30.95;;;23.35;;
26038;SDS011;13815;52.374;4.882;2022-08-05T14:48:37;31.30;;;23.48;;
26038;SDS011;13815;52.374;4.882;2022-08-05T14:51:03;32.33;;;23.63;;
26038;SDS011;13815;52.374;4.882;2022-08-05T14:53:28;32.75;;;23.75;;
26038;SDS011;13815;52.374;4.882;2022-08-05T14:55:53;32.92;;;24.05;;